createdAt,value
2023-04-23T00:00:03.421Z,945.02
2023-04-23T00:05:03.095Z,945.06
2023-04-23T00:10:04.018Z,945.08
2023-04-23T00:15:04.162Z,945.08
2023-04-23T00:20:03.261Z,945.14
2023-04-23T00:25:03.137Z,945.18
2023-04-23T00:30:08.363Z,945.27
2023-04-23T00:35:03.145Z,945.33
2023-04-23T00:40:03.245Z,945.33
2023-04-23T00:45:03.177Z,945.31
2023-04-23T00:50:03.174Z,945.33
2023-04-23T00:55:03.231Z,945.31
2023-04-23T01:00:04.371Z,945.35
2023-04-23T01:05:03.018Z,945.37
2023-04-23T01:10:03.178Z,945.35
2023-04-23T01:15:03.069Z,945.35
2023-04-23T01:20:03.498Z,945.29
2023-04-23T01:25:04.928Z,945.25
2023-04-23T01:30:03.561Z,945.23
2023-04-23T01:35:04.617Z,945.23
2023-04-23T01:40:03.974Z,945.22
2023-04-23T01:45:03.041Z,945.16
2023-04-23T01:50:04.256Z,945.10
2023-04-23T01:55:03.171Z,945.08
2023-04-23T02:00:03.383Z,945.08
2023-04-23T02:05:04.684Z,945.08
2023-04-23T02:10:03.189Z,945.12
2023-04-23T02:15:03.079Z,945.14
2023-04-23T02:20:03.311Z,945.10
2023-04-23T02:25:03.100Z,945.08
2023-04-23T02:30:03.333Z,944.98
2023-04-23T02:35:03.135Z,945.02
2023-04-23T02:40:03.363Z,945.00
2023-04-23T02:45:03.184Z,945.02
2023-04-23T02:50:03.230Z,945.08
2023-04-23T02:55:03.086Z,945.06
2023-04-23T03:00:03.419Z,945.04
2023-04-23T03:05:03.113Z,945.02
2023-04-23T03:10:03.262Z,945.08
2023-04-23T03:15:03.049Z,945.08
2023-04-23T03:20:03.359Z,945.00
2023-04-23T03:25:03.099Z,944.98
2023-04-23T03:30:03.191Z,944.90
2023-04-23T03:35:03.087Z,944.78
2023-04-23T03:40:03.178Z,944.76
2023-04-23T03:45:03.017Z,944.82
2023-04-23T03:50:03.182Z,944.78
2023-04-23T03:55:03.039Z,944.76
2023-04-23T04:00:03.222Z,944.72
2023-04-23T04:05:03.244Z,944.67
2023-04-23T04:10:03.252Z,944.65
2023-04-23T04:15:03.047Z,944.63
2023-04-23T04:20:03.269Z,944.59
2023-04-23T04:25:03.062Z,944.51
2023-04-23T04:30:03.227Z,944.47
2023-04-23T04:35:02.984Z,944.45
2023-04-23T04:40:03.155Z,944.45
2023-04-23T04:45:03.038Z,944.39
2023-04-23T04:50:03.225Z,944.31
2023-04-23T04:55:03.073Z,944.31
2023-04-23T05:00:03.234Z,944.33
2023-04-23T05:05:03.040Z,944.41
2023-04-23T05:10:03.167Z,944.39
2023-04-23T05:15:03.029Z,944.35
2023-04-23T05:20:03.110Z,944.35
2023-04-23T05:25:03.149Z,944.35
2023-04-23T05:30:03.139Z,944.33
2023-04-23T05:35:03.163Z,944.29
2023-04-23T05:40:03.223Z,944.31
2023-04-23T05:45:02.972Z,944.35
2023-04-23T05:50:03.201Z,944.39
2023-04-23T05:55:03.079Z,944.41
2023-04-23T06:00:04.174Z,944.39
2023-04-23T06:05:03.299Z,944.41
2023-04-23T06:10:03.307Z,944.45
2023-04-23T06:15:03.009Z,944.47
2023-04-23T06:20:03.105Z,944.49
2023-04-23T06:25:03.037Z,944.51
2023-04-23T06:30:08.477Z,944.47
2023-04-23T06:35:03.105Z,944.47
2023-04-23T06:40:03.174Z,944.41
2023-04-23T06:45:04.225Z,944.39
2023-04-23T06:50:03.384Z,944.35
2023-04-23T06:55:03.037Z,944.39
2023-04-23T07:00:03.169Z,944.45
2023-04-23T07:05:03.135Z,944.41
2023-04-23T07:10:03.264Z,944.39
2023-04-23T07:15:03.017Z,944.39
2023-04-23T07:20:03.304Z,944.41
2023-04-23T07:25:03.093Z,944.55
2023-04-23T07:30:03.163Z,944.53
2023-04-23T07:35:03.103Z,944.53
2023-04-23T07:40:03.218Z,944.51
2023-04-23T07:45:03.091Z,944.57
2023-04-23T07:50:03.150Z,944.63
2023-04-23T07:55:03.027Z,944.65
2023-04-23T08:00:03.262Z,944.63
2023-04-23T08:05:03.199Z,944.68
2023-04-23T08:10:03.246Z,944.74
2023-04-23T08:15:03.015Z,944.76
2023-04-23T08:20:03.166Z,944.76
2023-04-23T08:25:02.988Z,944.78
2023-04-23T08:30:03.123Z,944.80
2023-04-23T08:35:03.263Z,944.80
2023-04-23T08:40:03.156Z,944.80
2023-04-23T08:45:03.092Z,944.82
2023-04-23T08:50:03.185Z,944.88
2023-04-23T08:55:03.113Z,944.98
2023-04-23T09:00:03.222Z,945.06
2023-04-23T09:05:03.084Z,945.12
2023-04-23T09:10:03.232Z,945.14
2023-04-23T09:15:02.991Z,945.22
2023-04-23T09:20:03.175Z,945.23
2023-04-23T09:25:03.230Z,945.33
2023-04-23T09:30:03.184Z,945.43
2023-04-23T09:35:03.054Z,945.43
2023-04-23T09:40:03.336Z,945.41
2023-04-23T09:45:02.992Z,945.47
2023-04-23T09:50:03.299Z,945.51
2023-04-23T09:55:03.055Z,945.61
2023-04-23T10:00:11.279Z,945.69
2023-04-23T10:05:14.502Z,945.72
2023-04-23T10:10:03.217Z,945.78
2023-04-23T10:15:03.055Z,945.80
2023-04-23T10:20:03.282Z,945.86
2023-04-23T10:25:03.203Z,945.86
2023-04-23T10:30:04.845Z,945.88
2023-04-23T10:35:03.002Z,945.88
2023-04-23T10:40:03.187Z,945.86
2023-04-23T10:45:10.289Z,945.88
2023-04-23T10:50:03.838Z,945.90
2023-04-23T10:55:03.296Z,945.96
2023-04-23T11:00:03.214Z,945.98
2023-04-23T11:05:03.211Z,946.00
2023-04-23T11:10:03.188Z,946.04
2023-04-23T11:15:03.134Z,946.06
2023-04-23T11:20:03.177Z,946.18
2023-04-23T11:25:03.042Z,946.20
2023-04-23T11:30:03.169Z,946.25
2023-04-23T11:35:03.072Z,946.31
2023-04-23T11:40:03.449Z,946.35
2023-04-23T11:45:03.034Z,946.37
2023-04-23T11:50:03.241Z,946.39
2023-04-23T11:55:03.734Z,946.37
2023-04-23T12:00:03.357Z,946.43
2023-04-23T12:05:03.111Z,946.45
2023-04-23T12:10:03.197Z,946.47
2023-04-23T12:15:03.024Z,946.47
2023-04-23T12:20:03.199Z,946.53
2023-04-23T12:25:03.015Z,946.61
2023-04-23T12:30:05.687Z,946.63
2023-04-23T12:35:03.088Z,946.65
2023-04-23T12:40:03.217Z,946.69
2023-04-23T12:45:04.052Z,946.69
2023-04-23T12:50:03.934Z,946.74
2023-04-23T12:55:03.097Z,946.74
2023-04-23T13:00:03.158Z,946.73
2023-04-23T13:05:03.068Z,946.80
2023-04-23T13:10:04.267Z,946.88
2023-04-23T13:15:03.086Z,946.90
2023-04-23T13:20:03.176Z,946.90
2023-04-23T13:25:03.082Z,946.90
2023-04-23T13:30:03.342Z,946.90
2023-04-23T13:35:03.299Z,946.88
2023-04-23T13:40:03.907Z,946.84
2023-04-23T13:45:03.189Z,946.80
2023-04-23T13:50:03.234Z,946.82
2023-04-23T13:55:03.045Z,946.82
2023-04-23T14:00:03.280Z,946.80
2023-04-23T14:05:03.098Z,946.76
2023-04-23T14:10:03.535Z,946.74
2023-04-23T14:15:03.208Z,946.73
2023-04-23T14:20:03.425Z,946.63
2023-04-23T14:25:03.066Z,946.57
2023-04-23T14:30:03.177Z,946.55
2023-04-23T14:35:03.077Z,946.53
2023-04-23T14:40:03.220Z,946.49
2023-04-23T14:45:03.144Z,946.47
2023-04-23T14:50:03.195Z,946.43
2023-04-23T14:55:03.054Z,946.35
2023-04-23T15:00:03.343Z,946.29
2023-04-23T15:05:03.129Z,946.27
2023-04-23T15:10:03.328Z,946.22
2023-04-23T15:15:03.109Z,946.16
2023-04-23T15:20:03.260Z,946.06
2023-04-23T15:25:03.002Z,946.00
2023-04-23T15:30:03.168Z,945.94
2023-04-23T15:35:03.085Z,945.86
2023-04-23T15:40:03.144Z,945.74
2023-04-23T15:45:03.112Z,945.67
2023-04-23T15:50:03.310Z,945.63
2023-04-23T15:55:03.055Z,945.59
2023-04-23T16:00:03.235Z,945.51
2023-04-23T16:05:03.105Z,945.55
2023-04-23T16:10:03.234Z,945.47
2023-04-23T16:15:03.176Z,945.39
2023-04-23T16:20:03.409Z,945.29
2023-04-23T16:25:03.147Z,945.25
2023-04-23T16:30:03.418Z,945.20
2023-04-23T16:35:03.147Z,945.10
2023-04-23T16:40:03.226Z,945.06
2023-04-23T16:45:03.184Z,944.94
2023-04-23T16:50:05.884Z,944.90
2023-04-23T16:55:03.143Z,944.80
2023-04-23T17:00:03.263Z,944.70
2023-04-23T17:05:03.071Z,944.63
2023-04-23T17:10:03.323Z,944.59
2023-04-23T17:15:03.122Z,944.61
2023-04-23T17:20:03.326Z,944.53
2023-04-23T17:25:03.207Z,944.49
2023-04-23T17:30:03.498Z,944.41
2023-04-23T17:35:09.885Z,944.39
2023-04-23T17:40:03.211Z,944.29
2023-04-23T17:45:03.177Z,944.27
2023-04-23T17:50:03.392Z,944.25
2023-04-23T17:55:03.130Z,944.23
2023-04-23T18:00:04.183Z,944.19
2023-04-23T18:05:03.269Z,944.13
2023-04-23T18:10:03.370Z,944.12
2023-04-23T18:15:03.112Z,944.08
2023-04-23T18:20:04.277Z,944.06
2023-04-23T18:25:03.071Z,944.06
2023-04-23T18:30:03.173Z,944.02
2023-04-23T18:35:03.025Z,944.00
2023-04-23T18:40:03.162Z,944.00
2023-04-23T18:45:03.125Z,943.96
2023-04-23T18:50:03.244Z,943.94
2023-04-23T18:55:04.267Z,943.96
2023-04-23T19:00:03.204Z,943.94
2023-04-23T19:05:03.191Z,943.86
2023-04-23T19:10:03.152Z,943.88
2023-04-23T19:15:03.058Z,943.90
2023-04-23T19:20:03.286Z,943.90
2023-04-23T19:25:03.202Z,943.98
2023-04-23T19:30:03.268Z,944.04
2023-04-23T19:35:05.193Z,944.10
2023-04-23T19:40:03.247Z,944.12
2023-04-23T19:45:05.398Z,944.10
2023-04-23T19:50:03.273Z,944.04
2023-04-23T19:55:03.089Z,944.06
2023-04-23T20:00:03.203Z,944.13
2023-04-23T20:05:03.290Z,944.17
2023-04-23T20:10:03.132Z,944.15
2023-04-23T20:15:04.656Z,944.12
2023-04-23T20:20:03.295Z,944.12
2023-04-23T20:25:03.142Z,944.19
2023-04-23T20:30:03.205Z,944.21
2023-04-23T20:35:03.066Z,944.21
2023-04-23T20:40:03.211Z,944.23
2023-04-23T20:45:03.037Z,944.27
2023-04-23T20:50:03.212Z,944.29
2023-04-23T20:55:03.153Z,944.31
2023-04-23T21:00:03.428Z,944.31
2023-04-23T21:05:03.211Z,944.31
2023-04-23T21:10:03.233Z,944.37
2023-04-23T21:15:03.054Z,944.39
2023-04-23T21:20:03.311Z,944.43
2023-04-23T21:25:03.043Z,944.51
2023-04-23T21:30:03.135Z,944.57
2023-04-23T21:35:03.007Z,944.59
2023-04-23T21:40:03.268Z,944.59
2023-04-23T21:45:03.123Z,944.57
2023-04-23T21:50:03.227Z,944.53
2023-04-23T21:55:04.558Z,944.51
2023-04-23T22:00:03.266Z,944.55
2023-04-23T22:05:03.745Z,944.57
2023-04-23T22:10:03.202Z,944.61
2023-04-23T22:15:03.048Z,944.63
2023-04-23T22:20:03.293Z,944.67
2023-04-23T22:25:03.020Z,944.74
2023-04-23T22:30:03.443Z,944.80
2023-04-23T22:35:04.673Z,944.80
2023-04-23T22:40:03.176Z,944.76
2023-04-23T22:45:03.063Z,944.76
2023-04-23T22:50:04.273Z,944.78
2023-04-23T22:55:03.043Z,944.84
2023-04-23T23:00:03.372Z,944.90
2023-04-23T23:05:03.049Z,944.98
2023-04-23T23:10:03.203Z,945.08
2023-04-23T23:15:03.074Z,945.06
2023-04-23T23:20:03.174Z,945.10
2023-04-23T23:25:03.051Z,945.14
2023-04-23T23:30:03.219Z,945.18
2023-04-23T23:35:03.072Z,945.18
2023-04-23T23:40:03.174Z,945.20
2023-04-23T23:45:03.236Z,945.20
2023-04-23T23:50:03.238Z,945.22
2023-04-23T23:55:03.077Z,945.22
